Time;durP1;ratioP1;P1;durP2;ratioP2;P2;SDS_P1;SDS_P2;PMS_P1;PMS_P2;Temp;Humidity;BMP_temperature;BMP_pressure;BME280_temperature;BME280_humidity;BME280_pressure;Samples;Min_cycle;Max_cycle;Signal;HPM_P1;HPM_P2
2023/09/05 00:01:03;;;;;;;1.67;1.58;;;;;;;;;;4931359;28;20063;-75
2023/09/05 00:03:31;;;;;;;2.00;1.80;;;;;;;;;;4961989;28;20043;-75
2023/09/05 00:06:00;;;;;;;1.45;1.30;;;;;;;;;;4959724;28;20034;-74
2023/09/05 00:08:26;;;;;;;3.60;2.95;;;;;;;;;;4960643;28;20467;-74
2023/09/05 00:10:51;;;;;;;1.65;1.30;;;;;;;;;;4933539;28;20035;-75
2023/09/05 00:13:17;;;;;;;1.25;1.15;;;;;;;;;;4940992;28;20063;-74
2023/09/05 00:15:42;;;;;;;2.30;1.83;;;;;;;;;;4935797;28;20039;-74
2023/09/05 00:18:08;;;;;;;2.22;1.85;;;;;;;;;;4935304;28;20043;-74
2023/09/05 00:20:33;;;;;;;1.50;1.27;;;;;;;;;;4947007;28;20051;-74
2023/09/05 00:22:58;;;;;;;1.50;1.40;;;;;;;;;;4963149;28;20598;-74
2023/09/05 00:25:24;;;;;;;2.47;2.13;;;;;;;;;;4964898;28;20113;-74
2023/09/05 00:27:49;;;;;;;1.48;1.38;;;;;;;;;;4966034;28;20038;-74
2023/09/05 00:30:16;;;;;;;1.98;1.65;;;;;;;;;;4951197;28;20054;-74
2023/09/05 00:32:42;;;;;;;2.25;1.70;;;;;;;;;;4959516;28;20042;-74
2023/09/05 00:35:07;;;;;;;1.40;1.30;;;;;;;;;;4942771;28;20039;-74
2023/09/05 00:37:33;;;;;;;1.60;1.50;;;;;;;;;;4942523;28;20086;-74
2023/09/05 00:39:58;;;;;;;4.15;2.65;;;;;;;;;;4957961;28;20511;-74
2023/09/05 00:42:24;;;;;;;2.03;1.85;;;;;;;;;;4958900;28;20050;-74
2023/09/05 00:44:49;;;;;;;1.40;1.30;;;;;;;;;;4952038;28;20117;-74
2023/09/05 00:47:15;;;;;;;3.17;2.10;;;;;;;;;;4962096;28;20055;-74
2023/09/05 00:49:47;;;;;;;1.90;1.60;;;;;;;;;;4958236;28;20800;-74
2023/09/05 00:52:13;;;;;;;1.58;1.48;;;;;;;;;;4958935;28;20570;-74
2023/09/05 00:54:40;;;;;;;2.40;1.63;;;;;;;;;;4957562;28;20050;-74
2023/09/05 00:57:06;;;;;;;2.00;1.52;;;;;;;;;;4950731;28;20582;-74
2023/09/05 00:59:31;;;;;;;1.40;1.30;;;;;;;;;;4959388;28;20041;-74
2023/09/05 01:01:56;;;;;;;1.40;1.30;;;;;;;;;;4953783;28;20055;-74
2023/09/05 01:04:24;;;;;;;1.70;1.60;;;;;;;;;;4954175;28;20125;-74
2023/09/05 01:07:00;;;;;;;3.33;2.25;;;;;;;;;;4955149;28;20031;-74
2023/09/05 01:09:47;;;;;;;2.95;1.60;;;;;;;;;;4960666;28;20432;-74
2023/09/05 01:12:13;;;;;;;1.38;1.25;;;;;;;;;;4919272;28;20036;-74
2023/09/05 01:14:38;;;;;;;1.40;1.30;;;;;;;;;;4961526;28;20045;-73
2023/09/05 01:17:05;;;;;;;3.17;1.80;;;;;;;;;;4959443;28;20050;-74
2023/09/05 01:19:34;;;;;;;3.42;1.77;;;;;;;;;;4962357;28;20526;-74
2023/09/05 01:22:13;;;;;;;1.60;1.50;;;;;;;;;;4965723;28;20042;-73
2023/09/05 01:24:39;;;;;;;1.58;1.48;;;;;;;;;;4946663;28;20035;-73
2023/09/05 01:27:06;;;;;;;1.50;1.40;;;;;;;;;;4957923;28;20035;-74
2023/09/05 01:29:36;;;;;;;1.40;1.30;;;;;;;;;;4964522;28;20426;-74
2023/09/05 01:32:03;;;;;;;1.48;1.38;;;;;;;;;;4961138;28;20089;-74
2023/09/05 01:34:31;;;;;;;2.20;2.00;;;;;;;;;;4959845;28;20487;-74
2023/09/05 01:36:58;;;;;;;1.98;1.73;;;;;;;;;;4932028;28;20035;-74
2023/09/05 01:39:23;;;;;;;1.55;1.45;;;;;;;;;;4960151;28;20130;-74
2023/09/05 01:41:50;;;;;;;1.42;1.33;;;;;;;;;;4954707;28;20123;-75
2023/09/05 01:44:15;;;;;;;1.45;1.35;;;;;;;;;;4958758;28;20031;-75
2023/09/05 01:46:41;;;;;;;1.85;1.45;;;;;;;;;;4961424;28;20451;-74
2023/09/05 01:49:06;;;;;;;1.55;1.45;;;;;;;;;;4958006;28;20410;-75
2023/09/05 01:51:32;;;;;;;2.58;1.70;;;;;;;;;;4932250;28;20046;-74
2023/09/05 01:53:57;;;;;;;1.80;1.70;;;;;;;;;;4964676;28;20906;-74
2023/09/05 01:56:22;;;;;;;3.92;2.58;;;;;;;;;;4957937;28;20182;-75
2023/09/05 01:58:48;;;;;;;3.60;2.17;;;;;;;;;;4957612;28;20488;-74
2023/09/05 02:01:13;;;;;;;4.72;2.00;;;;;;;;;;4961192;28;20041;-74
2023/09/05 02:03:39;;;;;;;2.00;1.70;;;;;;;;;;4968016;28;20052;-74
2023/09/05 02:06:04;;;;;;;3.10;1.95;;;;;;;;;;4954335;28;20035;-74
2023/09/05 02:08:29;;;;;;;2.83;1.98;;;;;;;;;;4957492;28;20102;-74
2023/09/05 02:10:55;;;;;;;1.75;1.65;;;;;;;;;;4959534;28;20041;-74
2023/09/05 02:13:21;;;;;;;2.40;1.60;;;;;;;;;;4958871;28;20198;-74
2023/09/05 02:15:46;;;;;;;2.08;1.70;;;;;;;;;;4944571;28;20101;-74
2023/09/05 02:18:15;;;;;;;1.95;1.75;;;;;;;;;;4961209;28;20754;-74
2023/09/05 02:20:41;;;;;;;2.35;2.15;;;;;;;;;;4947481;28;20044;-74
2023/09/05 02:23:07;;;;;;;4.78;2.40;;;;;;;;;;4963292;28;20054;-73
2023/09/05 02:25:32;;;;;;;2.42;2.22;;;;;;;;;;4958058;28;20061;-74
2023/09/05 02:27:58;;;;;;;3.42;2.30;;;;;;;;;;4956951;28;20819;-74
2023/09/05 02:30:25;;;;;;;2.67;1.92;;;;;;;;;;4960463;28;20142;-74
2023/09/05 02:32:54;;;;;;;2.35;2.08;;;;;;;;;;4953926;28;20053;-74
2023/09/05 02:35:24;;;;;;;2.63;2.28;;;;;;;;;;4954948;28;20070;-73
2023/09/05 02:37:50;;;;;;;3.00;2.67;;;;;;;;;;4960151;28;20042;-73
2023/09/05 02:40:16;;;;;;;3.83;2.60;;;;;;;;;;4959877;28;20166;-74
2023/09/05 02:42:41;;;;;;;2.58;2.38;;;;;;;;;;4943811;28;20130;-74
2023/09/05 02:45:07;;;;;;;4.57;3.42;;;;;;;;;;4956928;28;20050;-74
2023/09/05 02:47:32;;;;;;;3.00;2.70;;;;;;;;;;4955625;28;20129;-74
2023/09/05 02:49:58;;;;;;;3.50;2.90;;;;;;;;;;4957699;28;20038;-74
2023/09/05 02:52:24;;;;;;;2.90;2.50;;;;;;;;;;4956261;28;20045;-74
2023/09/05 02:54:50;;;;;;;5.40;3.63;;;;;;;;;;4956419;28;20066;-74
2023/09/05 02:57:15;;;;;;;2.67;2.47;;;;;;;;;;4956080;28;20500;-74
2023/09/05 02:59:41;;;;;;;3.97;3.53;;;;;;;;;;4956661;28;20093;-74
2023/09/05 03:02:06;;;;;;;3.50;3.20;;;;;;;;;;4952809;28;20050;-74
2023/09/05 03:04:32;;;;;;;5.80;3.63;;;;;;;;;;4954489;28;20034;-74
2023/09/05 03:07:02;;;;;;;4.10;3.08;;;;;;;;;;4959733;28;20043;-74
2023/09/05 03:09:28;;;;;;;3.60;2.72;;;;;;;;;;4956607;28;20058;-74
2023/09/05 03:11:53;;;;;;;3.13;2.50;;;;;;;;;;4926368;28;20097;-74
2023/09/05 03:14:18;;;;;;;5.82;4.63;;;;;;;;;;4936627;28;20043;-74
2023/09/05 03:16:44;;;;;;;5.50;3.67;;;;;;;;;;4927040;28;20055;-74
2023/09/05 03:19:11;;;;;;;2.22;1.83;;;;;;;;;;4927681;28;20126;-74
2023/09/05 03:21:37;;;;;;;6.50;4.53;;;;;;;;;;4940318;28;20530;-74
2023/09/05 03:24:04;;;;;;;2.85;2.50;;;;;;;;;;4959191;28;20093;-74
2023/09/05 03:26:29;;;;;;;5.18;3.58;;;;;;;;;;4958479;28;20403;-75
2023/09/05 03:28:55;;;;;;;4.63;3.33;;;;;;;;;;4935270;28;20034;-75
2023/09/05 03:31:21;;;;;;;1.50;1.40;;;;;;;;;;4954279;28;20664;-74
2023/09/05 03:33:47;;;;;;;2.03;1.80;;;;;;;;;;4942761;28;20070;-74
2023/09/05 03:36:13;;;;;;;3.42;1.50;;;;;;;;;;4955313;28;20035;-74
2023/09/05 03:38:39;;;;;;;3.10;2.60;;;;;;;;;;4955801;28;20549;-74
2023/09/05 03:41:04;;;;;;;1.90;1.50;;;;;;;;;;4960006;28;20035;-74
2023/09/05 03:43:30;;;;;;;2.80;2.58;;;;;;;;;;4955033;28;20467;-74
2023/09/05 03:45:55;;;;;;;2.17;1.98;;;;;;;;;;4958864;28;20122;-74
2023/09/05 03:48:20;;;;;;;3.95;2.45;;;;;;;;;;4933125;28;20043;-74
2023/09/05 03:50:46;;;;;;;2.92;2.63;;;;;;;;;;4944915;28;20097;-74
2023/09/05 03:53:11;;;;;;;1.67;1.50;;;;;;;;;;4955893;28;20118;-74
2023/09/05 03:55:37;;;;;;;2.30;2.10;;;;;;;;;;4959197;28;20063;-74
2023/09/05 03:58:03;;;;;;;2.53;2.08;;;;;;;;;;4948867;28;20533;-74
2023/09/05 04:00:29;;;;;;;2.58;2.00;;;;;;;;;;4957449;28;20081;-74
2023/09/05 04:02:55;;;;;;;6.93;4.05;;;;;;;;;;4956878;28;20051;-74
2023/09/05 04:05:21;;;;;;;2.47;2.22;;;;;;;;;;4959721;28;20405;-74
2023/09/05 04:07:47;;;;;;;2.50;2.15;;;;;;;;;;4962507;28;20486;-74
2023/09/05 04:10:13;;;;;;;2.22;2.00;;;;;;;;;;4954887;28;20039;-74
2023/09/05 04:12:38;;;;;;;2.60;2.33;;;;;;;;;;4945653;28;20039;-74
2023/09/05 04:15:04;;;;;;;4.00;2.10;;;;;;;;;;4940427;28;20127;-74
2023/09/05 04:17:30;;;;;;;1.88;1.70;;;;;;;;;;4950029;28;20106;-74
2023/09/05 04:19:55;;;;;;;2.05;1.85;;;;;;;;;;4957722;28;20038;-74
2023/09/05 04:22:23;;;;;;;2.25;1.40;;;;;;;;;;4953408;28;20097;-74
2023/09/05 04:24:54;;;;;;;1.50;1.40;;;;;;;;;;4953094;28;20138;-75
2023/09/05 04:27:21;;;;;;;2.00;1.80;;;;;;;;;;4945823;28;20126;-75
2023/09/05 04:29:51;;;;;;;2.42;2.20;;;;;;;;;;4937330;28;20046;-75
2023/09/05 04:32:26;;;;;;;1.42;1.30;;;;;;;;;;4953648;28;20049;-75
2023/09/05 04:34:57;;;;;;;1.90;1.80;;;;;;;;;;4961355;28;20050;-75
2023/09/05 04:37:22;;;;;;;1.65;1.48;;;;;;;;;;4952599;28;20035;-75
2023/09/05 04:39:48;;;;;;;1.58;1.42;;;;;;;;;;4954264;28;20117;-75
2023/09/05 04:42:13;;;;;;;2.40;2.20;;;;;;;;;;4956317;28;20054;-75
2023/09/05 04:44:38;;;;;;;3.97;2.55;;;;;;;;;;4951754;28;20038;-75
2023/09/05 04:47:26;;;;;;;2.60;2.28;;;;;;;;;;4961094;28;20047;-75
2023/09/05 04:50:00;;;;;;;1.98;1.73;;;;;;;;;;4949196;28;20085;-75
2023/09/05 04:52:29;;;;;;;5.00;2.40;;;;;;;;;;4962549;28;20043;-75
2023/09/05 04:54:59;;;;;;;2.38;2.17;;;;;;;;;;4960957;28;20035;-75
2023/09/05 04:57:25;;;;;;;2.25;1.42;;;;;;;;;;4958805;28;20043;-75
2023/09/05 04:59:57;;;;;;;1.48;1.38;;;;;;;;;;4965917;28;20400;-74
2023/09/05 05:02:25;;;;;;;1.73;1.30;;;;;;;;;;4948231;28;20039;-74
2023/09/05 05:04:52;;;;;;;1.73;1.55;;;;;;;;;;4960065;28;20042;-73
2023/09/05 05:07:17;;;;;;;2.38;2.15;;;;;;;;;;4958007;28;20035;-73
2023/09/05 05:09:43;;;;;;;4.72;3.63;;;;;;;;;;4957006;28;20061;-72
2023/09/05 05:12:08;;;;;;;3.33;2.72;;;;;;;;;;4962868;28;20081;-72
2023/09/05 05:14:34;;;;;;;4.32;2.15;;;;;;;;;;4957733;28;20519;-73
2023/09/05 05:17:01;;;;;;;2.22;1.77;;;;;;;;;;4949594;28;20434;-73
2023/09/05 05:19:27;;;;;;;2.45;2.25;;;;;;;;;;4956750;28;20047;-73
2023/09/05 05:21:53;;;;;;;5.38;4.20;;;;;;;;;;4956605;28;20050;-73
2023/09/05 05:24:18;;;;;;;5.82;3.67;;;;;;;;;;4958932;28;20731;-73
2023/09/05 05:26:44;;;;;;;4.25;3.55;;;;;;;;;;4957347;28;20497;-73
2023/09/05 05:29:10;;;;;;;5.32;3.97;;;;;;;;;;4956896;28;20038;-73
2023/09/05 05:31:37;;;;;;;3.55;3.00;;;;;;;;;;4949347;28;20046;-73
2023/09/05 05:34:02;;;;;;;4.50;3.65;;;;;;;;;;4958267;28;20133;-73
2023/09/05 05:36:29;;;;;;;5.22;3.97;;;;;;;;;;4955059;28;20149;-73
2023/09/05 05:38:56;;;;;;;5.72;4.15;;;;;;;;;;4955884;28;20042;-73
2023/09/05 05:41:21;;;;;;;6.05;4.20;;;;;;;;;;4957836;28;20130;-73
2023/09/05 05:43:47;;;;;;;6.28;4.80;;;;;;;;;;4935544;28;20137;-73
2023/09/05 05:46:14;;;;;;;10.30;6.78;;;;;;;;;;4955999;28;20094;-73
2023/09/05 05:48:40;;;;;;;14.88;7.03;;;;;;;;;;4963650;28;20098;-73
2023/09/05 05:51:06;;;;;;;10.88;6.50;;;;;;;;;;4962186;28;20117;-73
2023/09/05 05:53:32;;;;;;;9.52;6.82;;;;;;;;;;4961754;28;20134;-73
2023/09/05 05:55:58;;;;;;;9.93;5.93;;;;;;;;;;4957264;28;20049;-73
2023/09/05 05:58:23;;;;;;;10.75;7.25;;;;;;;;;;4953289;28;20050;-73
2023/09/05 06:00:51;;;;;;;8.75;5.85;;;;;;;;;;4962394;28;20237;-73
2023/09/05 06:03:21;;;;;;;12.35;7.78;;;;;;;;;;4957734;28;20539;-73
2023/09/05 06:05:47;;;;;;;7.85;6.72;;;;;;;;;;4964382;28;20075;-73
2023/09/05 06:08:12;;;;;;;8.18;5.57;;;;;;;;;;4960624;28;20155;-73
2023/09/05 06:10:38;;;;;;;8.73;6.65;;;;;;;;;;4958187;28;20047;-73
2023/09/05 06:13:04;;;;;;;7.07;5.22;;;;;;;;;;4931895;28;20042;-73
2023/09/05 06:15:31;;;;;;;5.65;4.13;;;;;;;;;;4962138;28;20062;-73
2023/09/05 06:17:56;;;;;;;5.03;4.13;;;;;;;;;;4944534;28;20043;-73
2023/09/05 06:20:25;;;;;;;6.35;5.18;;;;;;;;;;4957295;28;20108;-72
2023/09/05 06:22:50;;;;;;;10.07;6.13;;;;;;;;;;4956918;28;20039;-73
2023/09/05 06:25:16;;;;;;;7.53;5.43;;;;;;;;;;4960370;28;20126;-72
2023/09/05 06:27:43;;;;;;;6.28;5.22;;;;;;;;;;4952540;28;20103;-73
2023/09/05 06:30:10;;;;;;;7.78;5.35;;;;;;;;;;4957726;28;20073;-73
2023/09/05 06:32:36;;;;;;;7.20;5.35;;;;;;;;;;4960109;28;20082;-73
2023/09/05 06:35:01;;;;;;;6.25;5.30;;;;;;;;;;4960528;28;20072;-73
2023/09/05 06:37:29;;;;;;;7.90;5.15;;;;;;;;;;4960883;28;20557;-73
2023/09/05 06:39:55;;;;;;;6.05;4.75;;;;;;;;;;4953676;28;20053;-73
2023/09/05 06:42:21;;;;;;;4.90;4.45;;;;;;;;;;4960977;28;20687;-73
2023/09/05 06:44:47;;;;;;;6.53;5.10;;;;;;;;;;4956957;28;20521;-73
2023/09/05 06:47:13;;;;;;;8.13;5.10;;;;;;;;;;4957399;28;20042;-72
2023/09/05 06:49:38;;;;;;;5.57;4.43;;;;;;;;;;4960406;28;20408;-73
2023/09/05 06:52:04;;;;;;;5.18;4.63;;;;;;;;;;4960462;28;20043;-73
2023/09/05 06:54:29;;;;;;;8.50;4.82;;;;;;;;;;4951671;28;20039;-73
2023/09/05 06:56:55;;;;;;;5.72;3.67;;;;;;;;;;4961154;28;20042;-73
2023/09/05 06:59:20;;;;;;;6.63;4.15;;;;;;;;;;4930432;28;20042;-73
2023/09/05 07:01:46;;;;;;;3.95;3.22;;;;;;;;;;4954287;28;20760;-73
2023/09/05 07:04:13;;;;;;;4.00;3.60;;;;;;;;;;4960811;28;20035;-73
2023/09/05 07:06:39;;;;;;;4.30;2.97;;;;;;;;;;4957768;28;20077;-73
2023/09/05 07:09:06;;;;;;;5.95;4.00;;;;;;;;;;4947484;28;20035;-73
2023/09/05 07:11:32;;;;;;;4.95;3.90;;;;;;;;;;4961746;28;20039;-73
2023/09/05 07:13:57;;;;;;;3.25;2.92;;;;;;;;;;4959129;28;20060;-73
2023/09/05 07:16:22;;;;;;;3.47;3.17;;;;;;;;;;4954325;28;20062;-73
2023/09/05 07:18:48;;;;;;;3.63;3.20;;;;;;;;;;4958045;28;20410;-73
2023/09/05 07:21:13;;;;;;;4.15;3.20;;;;;;;;;;4958116;28;20030;-73
2023/09/05 07:23:38;;;;;;;3.95;3.22;;;;;;;;;;4948096;28;20514;-73
2023/09/05 07:26:05;;;;;;;3.88;2.92;;;;;;;;;;4948145;28;20042;-73
2023/09/05 07:28:30;;;;;;;3.20;2.35;;;;;;;;;;4952867;28;20039;-73
2023/09/05 07:30:56;;;;;;;3.33;2.45;;;;;;;;;;4955865;28;20550;-73
2023/09/05 07:33:21;;;;;;;3.65;2.83;;;;;;;;;;4959690;28;20038;-73
2023/09/05 07:35:46;;;;;;;2.90;2.05;;;;;;;;;;4957932;28;20138;-73
2023/09/05 07:38:14;;;;;;;3.53;2.53;;;;;;;;;;4950081;28;20496;-73
2023/09/05 07:40:40;;;;;;;3.70;2.50;;;;;;;;;;4938529;28;20041;-73
2023/09/05 07:43:05;;;;;;;4.32;2.85;;;;;;;;;;4955388;28;20039;-73
2023/09/05 07:45:32;;;;;;;4.75;3.10;;;;;;;;;;4956413;28;20482;-73
2023/09/05 07:47:57;;;;;;;4.25;2.83;;;;;;;;;;4955292;28;20047;-73
2023/09/05 07:50:23;;;;;;;7.00;3.38;;;;;;;;;;4956224;28;20126;-73
2023/09/05 07:52:49;;;;;;;6.30;2.80;;;;;;;;;;4930882;28;20425;-73
2023/09/05 07:55:15;;;;;;;7.57;2.78;;;;;;;;;;4954802;28;20578;-73
2023/09/05 07:57:41;;;;;;;5.00;3.03;;;;;;;;;;4954169;28;20042;-73
2023/09/05 08:00:15;;;;;;;5.22;2.75;;;;;;;;;;4955131;28;20039;-73
2023/09/05 08:02:42;;;;;;;7.47;2.65;;;;;;;;;;4954962;28;20578;-73
2023/09/05 08:05:07;;;;;;;2.67;2.08;;;;;;;;;;4947856;28;20043;-73
2023/09/05 08:07:33;;;;;;;3.05;2.22;;;;;;;;;;4939330;28;20063;-73
2023/09/05 08:10:00;;;;;;;5.07;2.55;;;;;;;;;;4957004;28;20064;-73
2023/09/05 08:12:26;;;;;;;5.18;2.42;;;;;;;;;;4952936;28;20419;-73
2023/09/05 08:14:51;;;;;;;3.85;2.17;;;;;;;;;;4957526;28;20042;-73
2023/09/05 08:17:17;;;;;;;5.22;2.60;;;;;;;;;;4957979;28;20074;-73
2023/09/05 08:19:42;;;;;;;4.45;2.45;;;;;;;;;;4949861;28;20657;-73
2023/09/05 08:22:07;;;;;;;2.90;2.28;;;;;;;;;;4942456;28;20043;-73
2023/09/05 08:24:33;;;;;;;5.15;2.78;;;;;;;;;;4960143;28;20487;-73
2023/09/05 08:27:02;;;;;;;4.78;2.60;;;;;;;;;;4944916;28;20038;-73
2023/09/05 08:29:27;;;;;;;3.08;2.40;;;;;;;;;;4956638;28;20161;-73
2023/09/05 08:31:54;;;;;;;3.00;2.30;;;;;;;;;;4958261;28;20207;-73
2023/09/05 08:34:19;;;;;;;6.03;2.15;;;;;;;;;;4951117;28;21281;-73
2023/09/05 08:36:44;;;;;;;3.45;2.40;;;;;;;;;;4963788;28;20054;-72
2023/09/05 08:39:10;;;;;;;6.20;2.60;;;;;;;;;;4962363;28;20038;-73
2023/09/05 08:41:35;;;;;;;2.08;1.77;;;;;;;;;;4957670;28;20047;-73
2023/09/05 08:44:02;;;;;;;3.22;2.10;;;;;;;;;;4962276;28;20049;-73
2023/09/05 08:46:28;;;;;;;2.30;1.88;;;;;;;;;;4954360;28;20042;-73
2023/09/05 08:48:54;;;;;;;3.75;2.40;;;;;;;;;;4905244;28;1148404;-73
2023/09/05 08:51:20;;;;;;;5.07;2.60;;;;;;;;;;4959308;28;20053;-73
2023/09/05 08:53:56;;;;;;;3.83;1.70;;;;;;;;;;4944108;28;20042;-73
2023/09/05 08:56:22;;;;;;;2.38;2.17;;;;;;;;;;4957185;28;20416;-73
2023/09/05 08:58:48;;;;;;;7.93;2.42;;;;;;;;;;4959889;28;20070;-73
2023/09/05 09:01:14;;;;;;;4.05;2.25;;;;;;;;;;4949837;28;20076;-73
2023/09/05 09:03:39;;;;;;;2.67;2.22;;;;;;;;;;4959316;28;20046;-73
2023/09/05 09:06:05;;;;;;;2.58;2.03;;;;;;;;;;4959195;28;20030;-73
2023/09/05 09:08:48;;;;;;;6.63;2.65;;;;;;;;;;4958841;28;20549;-73
2023/09/05 09:11:15;;;;;;;3.47;2.20;;;;;;;;;;4958125;28;20035;-73
2023/09/05 09:13:40;;;;;;;5.40;2.13;;;;;;;;;;4949557;28;20166;-73
2023/09/05 09:16:06;;;;;;;4.50;2.28;;;;;;;;;;4954341;28;20545;-73
2023/09/05 09:18:32;;;;;;;2.78;2.30;;;;;;;;;;4959344;28;20129;-73
2023/09/05 09:21:03;;;;;;;6.38;1.80;;;;;;;;;;4957470;28;20054;-73
2023/09/05 09:23:31;;;;;;;3.13;2.08;;;;;;;;;;4960687;28;20090;-73
2023/09/05 09:25:57;;;;;;;2.97;1.80;;;;;;;;;;4947643;28;20106;-73
2023/09/05 09:28:31;;;;;;;3.35;2.00;;;;;;;;;;4944587;28;20031;-73
2023/09/05 09:31:13;;;;;;;3.08;1.73;;;;;;;;;;4957686;28;20031;-73
2023/09/05 09:33:40;;;;;;;2.80;2.00;;;;;;;;;;4958299;28;20200;-73
2023/09/05 09:36:08;;;;;;;1.55;1.38;;;;;;;;;;4939936;28;20031;-73
2023/09/05 09:38:34;;;;;;;5.72;2.25;;;;;;;;;;4927712;28;20102;-73
2023/09/05 09:41:02;;;;;;;2.40;2.00;;;;;;;;;;4942205;28;20051;-73
2023/09/05 09:43:31;;;;;;;2.40;2.17;;;;;;;;;;4939895;28;20058;-73
2023/09/05 09:45:59;;;;;;;3.45;2.05;;;;;;;;;;4937864;28;20130;-73
2023/09/05 09:48:28;;;;;;;3.42;1.88;;;;;;;;;;4938870;28;20115;-73
2023/09/05 09:51:00;;;;;;;3.13;1.83;;;;;;;;;;4932046;28;20039;-73
2023/09/05 09:53:30;;;;;;;2.17;1.67;;;;;;;;;;4967333;28;20049;-73
2023/09/05 09:55:57;;;;;;;2.33;1.70;;;;;;;;;;4948002;28;20038;-73
2023/09/05 09:58:25;;;;;;;2.55;1.70;;;;;;;;;;4949289;28;20039;-73
2023/09/05 10:00:51;;;;;;;2.13;1.95;;;;;;;;;;4955464;28;20109;-73
2023/09/05 10:03:17;;;;;;;2.95;1.83;;;;;;;;;;4947807;28;20056;-74
2023/09/05 10:05:43;;;;;;;1.60;1.50;;;;;;;;;;4943331;28;20050;-73
2023/09/05 10:08:12;;;;;;;4.30;1.67;;;;;;;;;;4961858;28;20111;-73
2023/09/05 10:10:41;;;;;;;3.55;1.73;;;;;;;;;;4957104;28;20607;-74
2023/09/05 10:13:10;;;;;;;3.35;1.80;;;;;;;;;;4957149;28;20101;-73
2023/09/05 10:15:36;;;;;;;2.85;1.63;;;;;;;;;;4960079;28;20084;-73
2023/09/05 10:18:04;;;;;;;2.67;1.40;;;;;;;;;;4943977;28;20046;-73
2023/09/05 10:20:31;;;;;;;1.50;1.40;;;;;;;;;;4959400;28;20747;-74
2023/09/05 10:22:57;;;;;;;2.25;1.98;;;;;;;;;;4955363;28;20051;-73
2023/09/05 10:25:24;;;;;;;3.38;1.80;;;;;;;;;;4956149;28;20054;-73
2023/09/05 10:27:49;;;;;;;1.80;1.65;;;;;;;;;;4962479;28;20038;-73
2023/09/05 10:30:15;;;;;;;2.10;1.92;;;;;;;;;;4959145;28;20455;-73
2023/09/05 10:32:42;;;;;;;2.67;1.80;;;;;;;;;;4950792;28;20051;-73
2023/09/05 10:35:08;;;;;;;3.35;1.58;;;;;;;;;;4956116;28;20030;-73
2023/09/05 10:37:33;;;;;;;2.05;1.52;;;;;;;;;;4946981;28;20045;-73
2023/09/05 10:40:08;;;;;;;1.75;1.50;;;;;;;;;;4960731;28;20042;-73
2023/09/05 10:42:40;;;;;;;3.10;1.70;;;;;;;;;;4956179;28;20055;-73
2023/09/05 10:45:23;;;;;;;2.65;2.08;;;;;;;;;;4950370;28;20591;-73
2023/09/05 10:47:50;;;;;;;1.65;1.27;;;;;;;;;;4954948;28;20054;-74
2023/09/05 10:50:19;;;;;;;3.38;1.77;;;;;;;;;;4959653;28;20413;-74
2023/09/05 10:53:11;;;;;;;2.80;1.97;;;;;;;;;;4961651;28;20062;-74
2023/09/05 10:55:44;;;;;;;2.60;2.00;;;;;;;;;;4951654;28;20420;-73
2023/09/05 10:58:39;;;;;;;2.00;1.90;;;;;;;;;;4955741;28;20035;-73
2023/09/05 11:01:29;;;;;;;2.40;1.67;;;;;;;;;;4953067;28;20544;-73
2023/09/05 11:04:07;;;;;;;2.20;1.35;;;;;;;;;;4949488;28;20047;-73
2023/09/05 11:06:43;;;;;;;1.70;1.55;;;;;;;;;;4955296;28;20049;-73
2023/09/05 11:09:08;;;;;;;2.50;1.60;;;;;;;;;;4953369;28;20035;-73
2023/09/05 11:11:37;;;;;;;2.33;1.40;;;;;;;;;;4958695;28;20457;-73
2023/09/05 11:14:06;;;;;;;2.58;1.23;;;;;;;;;;4959915;28;20043;-73
2023/09/05 11:16:47;;;;;;;1.30;1.13;;;;;;;;;;4950616;28;20435;-73
2023/09/05 11:19:12;;;;;;;;;;;;;;;;;;4954943;28;20140;-73
2023/09/05 11:21:38;;;;;;;1.58;1.20;;;;;;;;;;4955791;28;20402;-73
2023/09/05 11:24:03;;;;;;;1.75;1.50;;;;;;;;;;4959790;28;20039;-73
2023/09/05 11:26:29;;;;;;;2.22;1.20;;;;;;;;;;4958298;28;20050;-73
2023/09/05 11:28:54;;;;;;;1.38;1.27;;;;;;;;;;4949792;28;20130;-73
2023/09/05 11:31:21;;;;;;;3.03;1.42;;;;;;;;;;4958451;28;20440;-73
2023/09/05 11:33:48;;;;;;;1.50;1.40;;;;;;;;;;4958582;28;20051;-73
2023/09/05 11:36:13;;;;;;;2.17;1.88;;;;;;;;;;4962924;28;20035;-73
2023/09/05 11:38:50;;;;;;;2.03;1.60;;;;;;;;;;4959940;28;20108;-73
2023/09/05 11:41:16;;;;;;;1.67;1.25;;;;;;;;;;4951394;28;20039;-73
2023/09/05 11:43:50;;;;;;;1.80;1.50;;;;;;;;;;4957321;28;20146;-73
2023/09/05 11:46:17;;;;;;;3.45;1.60;;;;;;;;;;4959276;28;20438;-73
2023/09/05 11:48:44;;;;;;;1.40;1.17;;;;;;;;;;4961349;28;20140;-73
2023/09/05 11:51:12;;;;;;;2.65;1.70;;;;;;;;;;4960194;28;20042;-72
2023/09/05 11:53:37;;;;;;;1.40;1.30;;;;;;;;;;4956461;28;20045;-73
2023/09/05 11:56:03;;;;;;;1.50;1.40;;;;;;;;;;4951712;28;20043;-73
2023/09/05 11:58:30;;;;;;;1.73;1.40;;;;;;;;;;4957819;28;20038;-73
2023/09/05 12:00:57;;;;;;;2.15;1.38;;;;;;;;;;4960043;28;20423;-73
2023/09/05 12:03:23;;;;;;;1.95;1.40;;;;;;;;;;4957385;28;20559;-73
2023/09/05 12:05:51;;;;;;;1.75;1.30;;;;;;;;;;4959150;28;20134;-73
2023/09/05 12:08:20;;;;;;;2.70;1.52;;;;;;;;;;4945421;28;20035;-73
2023/09/05 12:10:52;;;;;;;1.35;1.10;;;;;;;;;;4957789;28;20057;-73
2023/09/05 12:13:34;;;;;;;1.83;1.00;;;;;;;;;;4955490;28;20031;-73
2023/09/05 12:15:59;;;;;;;1.60;1.50;;;;;;;;;;4958677;28;20050;-73
2023/09/05 12:18:25;;;;;;;2.30;1.38;;;;;;;;;;4961101;28;20055;-73
2023/09/05 12:21:00;;;;;;;2.40;1.17;;;;;;;;;;4946866;28;20049;-73
2023/09/05 12:23:26;;;;;;;1.38;1.20;;;;;;;;;;4960228;28;20043;-73
2023/09/05 12:25:57;;;;;;;3.03;1.15;;;;;;;;;;4949041;28;20058;-73
2023/09/05 12:28:25;;;;;;;0.90;0.90;;;;;;;;;;4954123;28;20049;-73
2023/09/05 12:30:53;;;;;;;2.67;0.60;;;;;;;;;;4955088;28;20452;-72
2023/09/05 12:33:19;;;;;;;1.00;0.73;;;;;;;;;;4943414;28;20933;-73
2023/09/05 12:35:46;;;;;;;0.68;0.63;;;;;;;;;;4954531;28;20031;-73
2023/09/05 12:38:12;;;;;;;1.73;0.85;;;;;;;;;;4960340;28;20078;-73
2023/09/05 12:40:38;;;;;;;1.00;0.90;;;;;;;;;;4955086;28;20039;-73
2023/09/05 12:43:04;;;;;;;1.60;0.68;;;;;;;;;;4955603;28;20041;-73
2023/09/05 12:45:31;;;;;;;0.60;0.60;;;;;;;;;;4958504;28;20121;-73
2023/09/05 12:47:57;;;;;;;0.82;0.70;;;;;;;;;;4946490;28;20488;-73
2023/09/05 12:50:30;;;;;;;1.27;0.60;;;;;;;;;;4953588;28;20138;-73
2023/09/05 12:53:10;;;;;;;0.75;0.70;;;;;;;;;;4953862;28;20097;-73
2023/09/05 12:55:37;;;;;;;1.38;0.70;;;;;;;;;;4955838;28;20440;-72
2023/09/05 12:58:04;;;;;;;0.77;0.63;;;;;;;;;;4954082;28;20035;-73
2023/09/05 13:00:31;;;;;;;0.70;0.70;;;;;;;;;;4945445;28;20437;-73
2023/09/05 13:02:57;;;;;;;0.98;0.70;;;;;;;;;;4953893;28;20039;-73
2023/09/05 13:05:23;;;;;;;0.80;0.60;;;;;;;;;;4942042;28;20837;-73
2023/09/05 13:07:49;;;;;;;0.70;0.70;;;;;;;;;;4958851;28;20058;-73
2023/09/05 13:10:14;;;;;;;1.23;0.60;;;;;;;;;;4958643;28;20648;-73
2023/09/05 13:12:39;;;;;;;1.17;0.57;;;;;;;;;;4949491;28;20062;-73
2023/09/05 13:15:05;;;;;;;0.82;0.68;;;;;;;;;;4959949;28;20185;-73
2023/09/05 13:17:32;;;;;;;0.68;0.65;;;;;;;;;;4965093;28;20065;-73
2023/09/05 13:19:57;;;;;;;1.65;0.80;;;;;;;;;;4945064;28;20031;-73
2023/09/05 13:22:23;;;;;;;0.60;0.60;;;;;;;;;;4963929;28;20121;-72
2023/09/05 13:24:48;;;;;;;1.35;0.60;;;;;;;;;;4965105;28;20118;-73
2023/09/05 13:27:14;;;;;;;0.57;0.52;;;;;;;;;;4942692;28;20590;-73
2023/09/05 13:29:39;;;;;;;1.25;0.77;;;;;;;;;;4966837;28;20050;-73
2023/09/05 13:32:07;;;;;;;1.25;0.70;;;;;;;;;;4960769;28;20061;-73
2023/09/05 13:34:36;;;;;;;0.93;0.60;;;;;;;;;;4962897;28;20046;-73
2023/09/05 13:37:02;;;;;;;0.60;0.60;;;;;;;;;;4960376;28;20042;-73
2023/09/05 13:39:28;;;;;;;0.50;0.50;;;;;;;;;;4964829;28;20076;-73
2023/09/05 13:41:54;;;;;;;3.35;1.10;;;;;;;;;;4947320;28;20053;-73
2023/09/05 13:44:20;;;;;;;0.98;0.52;;;;;;;;;;4961375;28;20508;-73
2023/09/05 13:46:47;;;;;;;0.50;0.50;;;;;;;;;;4952295;28;20049;-73
2023/09/05 13:49:13;;;;;;;2.33;0.63;;;;;;;;;;4923521;28;20118;-73
2023/09/05 13:51:38;;;;;;;0.75;0.70;;;;;;;;;;4937820;28;20047;-73
2023/09/05 13:54:05;;;;;;;0.60;0.60;;;;;;;;;;4952542;28;20062;-73
2023/09/05 13:56:31;;;;;;;0.60;0.60;;;;;;;;;;4948874;28;20305;-73
2023/09/05 13:58:57;;;;;;;0.77;0.70;;;;;;;;;;4957662;28;20672;-73
2023/09/05 14:01:22;;;;;;;0.85;0.70;;;;;;;;;;4957370;28;20073;-73
2023/09/05 14:03:48;;;;;;;0.60;0.60;;;;;;;;;;4957710;28;20043;-73
2023/09/05 14:06:14;;;;;;;0.52;0.50;;;;;;;;;;4963307;28;20502;-73
2023/09/05 14:08:40;;;;;;;0.98;0.50;;;;;;;;;;4959376;28;20535;-73
2023/09/05 14:11:06;;;;;;;5.35;0.88;;;;;;;;;;4956872;28;20114;-73
2023/09/05 14:13:32;;;;;;;0.60;0.60;;;;;;;;;;4958563;28;20142;-72
2023/09/05 14:15:59;;;;;;;1.55;0.80;;;;;;;;;;4957193;28;20137;-73
2023/09/05 14:18:25;;;;;;;0.60;0.60;;;;;;;;;;4940220;28;20073;-73
2023/09/05 14:20:50;;;;;;;0.75;0.50;;;;;;;;;;4957338;28;20062;-73
2023/09/05 14:23:15;;;;;;;1.27;0.70;;;;;;;;;;4945878;28;20142;-73
2023/09/05 14:25:41;;;;;;;1.83;0.75;;;;;;;;;;4959635;28;20046;-73
2023/09/05 14:28:06;;;;;;;2.58;0.90;;;;;;;;;;4957190;28;20508;-72
2023/09/05 14:30:32;;;;;;;5.65;1.10;;;;;;;;;;4959047;28;20046;-73
2023/09/05 14:32:59;;;;;;;2.03;0.95;;;;;;;;;;4957893;28;20062;-73
2023/09/05 14:35:25;;;;;;;0.90;0.90;;;;;;;;;;4955485;28;20085;-73
2023/09/05 14:37:51;;;;;;;0.77;0.77;;;;;;;;;;4945879;28;20407;-73
2023/09/05 14:40:16;;;;;;;1.25;0.82;;;;;;;;;;4957818;28;20134;-73
2023/09/05 14:42:42;;;;;;;1.10;0.80;;;;;;;;;;4956234;28;20524;-73